Allenwood, Pennsylvania
Current Conditions -  °F | °C
As of 5:20 AM on Monday 26 Jan 2015 (Local Time) from KIPT Reporting Station
Light Snow Light Snow  
Wind Chill: 18°   Ceiling: 4000
Heat Index: 18°   Visibility: 6mi
Dew Point: 13°   Wind: 0mph
Humidity: 81%   Direction: NA
Pressure: 29.92"   Gusts: NA
Location:  41.11°N, 76.9°W
Report Text: KIPT 261020Z AUTO 00000KT 6SM -SN FEW020 OVC040 M08/M11 A2992 RMK AO2 P0001 T10781106
Loading
Personal Weather Stations






























Interactive Weather Map New forecast layout! Learn more

10-Day Weather Forecast

Advertisements
Track Severe Weather on mobile